createdAt,value
2023-02-14T00:00:07.087Z, 45.54
2023-02-14T00:01:07.190Z, 45.47
2023-02-14T00:02:07.131Z, 45.40
2023-02-14T00:03:07.244Z, 45.44
2023-02-14T00:04:07.207Z, 45.39
2023-02-14T00:05:07.136Z, 45.37
2023-02-14T00:06:07.158Z, 45.32
2023-02-14T00:07:07.182Z, 45.28
2023-02-14T00:08:07.180Z, 45.27
2023-02-14T00:09:07.249Z, 45.29
2023-02-14T00:10:07.238Z, 45.27
2023-02-14T00:11:07.251Z, 45.22
2023-02-14T00:12:07.268Z, 45.21
2023-02-14T00:13:07.287Z, 45.21
2023-02-14T00:14:07.287Z, 45.13
2023-02-14T00:15:07.325Z, 45.12
2023-02-14T00:16:07.404Z, 45.08
2023-02-14T00:17:07.324Z, 45.01
2023-02-14T00:18:07.333Z, 44.99
2023-02-14T00:19:07.304Z, 44.93
2023-02-14T00:20:07.304Z, 44.91
2023-02-14T00:21:07.377Z, 44.95
2023-02-14T00:22:07.372Z, 44.91
2023-02-14T00:23:07.409Z, 44.87
2023-02-14T00:24:07.374Z, 44.85
2023-02-14T00:25:07.375Z, 44.85
2023-02-14T00:26:07.440Z, 44.86
2023-02-14T00:27:07.443Z, 44.78
2023-02-14T00:28:07.446Z, 44.79
2023-02-14T00:29:07.459Z, 44.77
2023-02-14T00:30:07.549Z, 44.73
2023-02-14T00:31:07.670Z, 44.69
2023-02-14T00:32:07.539Z, 44.67
2023-02-14T00:33:07.456Z, 44.62
2023-02-14T00:34:07.441Z, 44.67
2023-02-14T00:35:07.450Z, 44.61
2023-02-14T00:36:07.642Z, 44.60
2023-02-14T00:37:07.508Z, 44.61
2023-02-14T00:38:07.498Z, 44.55
2023-02-14T00:39:07.500Z, 44.53
2023-02-14T00:40:07.506Z, 44.45
2023-02-14T00:41:07.513Z, 44.48
2023-02-14T00:42:07.507Z, 44.46
2023-02-14T00:43:07.525Z, 44.40
2023-02-14T00:44:07.537Z, 44.40
2023-02-14T00:45:07.611Z, 44.32
2023-02-14T00:46:07.631Z, 44.34
2023-02-14T00:47:07.601Z, 44.37
2023-02-14T00:48:07.652Z, 44.32
2023-02-14T00:49:07.649Z, 44.30
2023-02-14T00:50:07.635Z, 44.30
2023-02-14T00:51:07.690Z, 44.28
2023-02-14T00:52:07.709Z, 44.28
2023-02-14T00:53:07.670Z, 44.24
2023-02-14T00:54:07.680Z, 44.21
2023-02-14T00:55:07.668Z, 44.14
2023-02-14T00:56:07.681Z, 44.18
2023-02-14T00:57:07.666Z, 44.13
2023-02-14T00:58:07.671Z, 44.22
2023-02-14T00:59:07.744Z, 44.12
2023-02-14T01:00:07.775Z, 44.05
2023-02-14T01:01:07.854Z, 44.01
2023-02-14T01:02:07.849Z, 43.99
2023-02-14T01:03:07.769Z, 44.04
2023-02-14T01:04:07.785Z, 44.02
2023-02-14T01:05:07.822Z, 43.93
2023-02-14T01:06:07.802Z, 43.84
2023-02-14T01:07:07.760Z, 43.77
2023-02-14T01:08:07.779Z, 43.76
2023-02-14T01:09:07.784Z, 43.72
2023-02-14T01:10:07.822Z, 43.78
2023-02-14T01:11:07.884Z, 43.78
2023-02-14T01:12:07.883Z, 43.73
2023-02-14T01:13:07.880Z, 43.76
2023-02-14T01:14:07.866Z, 43.68
2023-02-14T01:15:07.860Z, 43.75
2023-02-14T01:16:07.942Z, 43.64
2023-02-14T01:17:07.915Z, 43.68
2023-02-14T01:18:07.910Z, 43.69
2023-02-14T01:19:07.901Z, 43.64
2023-02-14T01:20:07.917Z, 43.62
2023-02-14T01:21:07.941Z, 43.60
2023-02-14T01:22:07.927Z, 43.54
2023-02-14T01:23:07.960Z, 43.52
2023-02-14T01:24:07.986Z, 43.49
2023-02-14T01:25:07.997Z, 43.47
2023-02-14T01:26:07.985Z, 43.49
2023-02-14T01:27:07.967Z, 43.41
2023-02-14T01:28:08.025Z, 43.38
2023-02-14T01:29:07.998Z, 43.35
2023-02-14T01:30:08.060Z, 43.40
2023-02-14T01:31:08.088Z, 43.33
2023-02-14T01:32:08.083Z, 43.31
2023-02-14T01:33:08.082Z, 43.38
2023-02-14T01:34:08.073Z, 43.29
2023-02-14T01:35:08.063Z, 43.23
2023-02-14T01:36:08.083Z, 43.28
2023-02-14T01:37:08.107Z, 43.27
2023-02-14T01:38:08.097Z, 43.29
2023-02-14T01:39:08.149Z, 43.23
2023-02-14T01:40:08.191Z, 43.25
2023-02-14T01:41:08.197Z, 43.21
2023-02-14T01:42:08.179Z, 43.16
2023-02-14T01:43:08.184Z, 43.12
2023-02-14T01:44:08.207Z, 43.13
2023-02-14T01:45:08.171Z, 43.09
2023-02-14T01:46:08.227Z, 43.01
2023-02-14T01:47:08.165Z, 43.03
2023-02-14T01:48:08.154Z, 42.98
2023-02-14T01:49:08.162Z, 42.98
2023-02-14T01:50:08.255Z, 42.93
2023-02-14T01:51:08.296Z, 42.96
2023-02-14T01:52:08.219Z, 42.93
2023-02-14T01:53:08.221Z, 42.86
2023-02-14T01:54:08.231Z, 42.89
2023-02-14T01:55:08.223Z, 42.91
2023-02-14T01:56:08.236Z, 42.83
2023-02-14T01:57:08.250Z, 42.88
2023-02-14T01:58:08.257Z, 42.82
2023-02-14T01:59:08.256Z, 42.84
2023-02-14T02:00:08.321Z, 42.79
2023-02-14T02:01:08.376Z, 42.77
2023-02-14T02:02:08.407Z, 42.79
2023-02-14T02:03:08.318Z, 42.78
2023-02-14T02:04:08.325Z, 42.74
2023-02-14T02:05:08.312Z, 42.70
2023-02-14T02:06:08.383Z, 42.67
2023-02-14T02:07:08.370Z, 42.61
2023-02-14T02:08:08.426Z, 42.63
2023-02-14T02:09:08.387Z, 42.63
2023-02-14T02:10:08.396Z, 42.57
2023-02-14T02:11:08.467Z, 42.55
2023-02-14T02:12:08.424Z, 42.53
2023-02-14T02:13:08.467Z, 42.47
2023-02-14T02:14:08.507Z, 42.51
2023-02-14T02:15:08.486Z, 42.53
2023-02-14T02:16:08.524Z, 42.46
2023-02-14T02:17:08.526Z, 42.39
2023-02-14T02:18:08.489Z, 42.40
2023-02-14T02:19:08.528Z, 42.40
2023-02-14T02:20:08.532Z, 42.34
2023-02-14T02:21:08.558Z, 42.36
2023-02-14T02:22:08.519Z, 42.32
2023-02-14T02:23:08.523Z, 42.32
2023-02-14T02:24:08.519Z, 42.31
2023-02-14T02:25:08.575Z, 42.26
2023-02-14T02:26:08.569Z, 42.30
2023-02-14T02:27:08.824Z, 42.32
2023-02-14T02:28:08.590Z, 42.21
2023-02-14T02:29:08.634Z, 42.18
2023-02-14T02:30:08.669Z, 42.17
2023-02-14T02:31:08.728Z, 42.12
2023-02-14T02:32:08.735Z, 42.10
2023-02-14T02:33:08.632Z, 42.10
2023-02-14T02:34:08.680Z, 42.10
2023-02-14T02:35:08.660Z, 42.08
2023-02-14T02:36:08.662Z, 42.04
2023-02-14T02:37:08.676Z, 42.07
2023-02-14T02:38:08.657Z, 42.01
2023-02-14T02:39:08.706Z, 42.03
2023-02-14T02:40:08.693Z, 42.09
2023-02-14T02:41:08.741Z, 42.03
2023-02-14T02:42:08.707Z, 41.96
2023-02-14T02:43:08.703Z, 42.01
2023-02-14T02:44:08.710Z, 41.97
2023-02-14T02:45:08.726Z, 41.93
2023-02-14T02:46:08.819Z, 41.97
2023-02-14T02:47:08.771Z, 41.97
2023-02-14T02:48:08.790Z, 41.92
2023-02-14T02:49:08.920Z, 41.82
2023-02-14T02:50:08.853Z, 41.84
2023-02-14T02:51:08.874Z, 41.84
2023-02-14T02:52:08.891Z, 41.79
2023-02-14T02:53:08.851Z, 41.83
2023-02-14T02:54:08.848Z, 41.81
2023-02-14T02:55:08.875Z, 41.77
2023-02-14T02:56:08.850Z, 41.71
2023-02-14T02:57:08.844Z, 41.73
2023-02-14T02:58:08.852Z, 41.72
2023-02-14T02:59:08.858Z, 41.63
2023-02-14T03:00:08.922Z, 41.65
2023-02-14T03:01:08.965Z, 41.71
2023-02-14T03:02:08.916Z, 41.61
2023-02-14T03:03:08.908Z, 41.55
2023-02-14T03:04:08.946Z, 41.50
2023-02-14T03:05:09.026Z, 41.54
2023-02-14T03:06:08.948Z, 41.54
2023-02-14T03:07:08.948Z, 41.52
2023-02-14T03:08:08.933Z, 41.55
2023-02-14T03:09:08.977Z, 41.44
2023-02-14T03:10:08.974Z, 41.52
2023-02-14T03:11:08.974Z, 41.40
2023-02-14T03:12:08.973Z, 41.33
2023-02-14T03:13:08.985Z, 41.40
2023-02-14T03:14:09.063Z, 41.46
2023-02-14T03:15:09.059Z, 41.41
2023-02-14T03:16:09.147Z, 41.39
2023-02-14T03:17:09.046Z, 41.31
2023-02-14T03:18:09.081Z, 41.32
2023-02-14T03:19:09.058Z, 41.37
2023-02-14T03:20:09.116Z, 41.32
2023-02-14T03:21:09.131Z, 41.29
2023-02-14T03:22:09.090Z, 41.32
2023-02-14T03:23:09.088Z, 41.30
2023-02-14T03:24:09.083Z, 41.29
2023-02-14T03:25:09.174Z, 41.28
2023-02-14T03:26:09.169Z, 41.32
2023-02-14T03:27:09.160Z, 41.21
2023-02-14T03:28:09.183Z, 41.22
2023-02-14T03:29:09.150Z, 41.18
2023-02-14T03:30:09.299Z, 41.11
2023-02-14T03:31:09.320Z, 41.15
2023-02-14T03:32:09.410Z, 41.16
2023-02-14T03:33:09.194Z, 41.10
2023-02-14T03:34:09.207Z, 41.05
2023-02-14T03:35:09.226Z, 41.08
2023-02-14T03:36:09.217Z, 41.08
2023-02-14T03:37:09.205Z, 41.05
2023-02-14T03:38:09.207Z, 41.06
2023-02-14T03:39:09.262Z, 41.01
2023-02-14T03:40:09.233Z, 41.03
2023-02-14T03:41:09.244Z, 41.07
2023-02-14T03:42:09.224Z, 40.98
2023-02-14T03:43:09.288Z, 40.92
2023-02-14T03:44:09.268Z, 40.94
2023-02-14T03:45:09.355Z, 40.97
2023-02-14T03:46:09.604Z, 40.92
2023-02-14T03:47:09.320Z, 40.93
2023-02-14T03:48:09.319Z, 40.85
2023-02-14T03:49:09.315Z, 40.82
2023-02-14T03:50:09.320Z, 40.84
2023-02-14T03:51:09.354Z, 40.87
2023-02-14T03:52:09.379Z, 40.81
2023-02-14T03:53:09.356Z, 40.78
2023-02-14T03:54:09.401Z, 40.79
2023-02-14T03:55:09.391Z, 40.83
2023-02-14T03:56:09.420Z, 40.80
2023-02-14T03:57:09.481Z, 40.76
2023-02-14T03:58:09.471Z, 40.73
2023-02-14T03:59:09.438Z, 40.73
2023-02-14T04:00:09.432Z, 40.67
2023-02-14T04:01:09.448Z, 40.62
2023-02-14T04:02:09.419Z, 40.61
2023-02-14T04:03:09.576Z, 40.67
2023-02-14T04:04:09.476Z, 40.58
2023-02-14T04:05:09.472Z, 40.59
2023-02-14T04:06:09.520Z, 40.59
2023-02-14T04:07:09.500Z, 40.53
2023-02-14T04:08:09.567Z, 40.52
2023-02-14T04:09:09.529Z, 40.52
2023-02-14T04:10:09.525Z, 40.50
2023-02-14T04:11:09.595Z, 40.45
2023-02-14T04:12:09.566Z, 40.36
2023-02-14T04:13:09.591Z, 40.44
2023-02-14T04:14:09.585Z, 40.42
2023-02-14T04:15:09.579Z, 40.41
2023-02-14T04:16:09.683Z, 40.38
2023-02-14T04:17:09.585Z, 40.36
2023-02-14T04:18:09.590Z, 40.36
2023-02-14T04:19:09.591Z, 40.36
2023-02-14T04:20:09.674Z, 40.41
2023-02-14T04:21:09.668Z, 40.42
2023-02-14T04:22:09.656Z, 40.39
2023-02-14T04:23:09.650Z, 40.34
2023-02-14T04:24:09.713Z, 40.32
2023-02-14T04:25:09.704Z, 40.36
2023-02-14T04:26:09.701Z, 40.28
2023-02-14T04:27:09.800Z, 40.22
2023-02-14T04:28:09.729Z, 40.24
2023-02-14T04:29:09.728Z, 40.20
2023-02-14T04:30:09.749Z, 40.21
2023-02-14T04:31:09.878Z, 40.61
2023-02-14T04:32:09.991Z, 42.16
2023-02-14T04:33:09.755Z, 42.74
2023-02-14T04:34:09.792Z, 43.01
2023-02-14T04:35:09.800Z, 43.04
2023-02-14T04:36:09.802Z, 43.10
2023-02-14T04:37:09.869Z, 43.08
2023-02-14T04:38:09.846Z, 43.11
2023-02-14T04:39:09.847Z, 43.15
2023-02-14T04:40:09.814Z, 43.15
2023-02-14T04:41:09.817Z, 43.20
2023-02-14T04:42:09.840Z, 43.21
2023-02-14T04:43:09.844Z, 43.26
2023-02-14T04:44:09.856Z, 43.32
2023-02-14T04:45:09.897Z, 43.27
2023-02-14T04:46:09.963Z, 43.32
2023-02-14T04:47:09.920Z, 43.33
2023-02-14T04:48:09.913Z, 43.27
2023-02-14T04:49:09.942Z, 43.24
2023-02-14T04:50:09.917Z, 43.20
2023-02-14T04:51:09.923Z, 43.20
2023-02-14T04:52:09.929Z, 43.12
2023-02-14T04:53:09.944Z, 43.14
2023-02-14T04:54:09.971Z, 43.04
2023-02-14T04:55:09.957Z, 42.98
2023-02-14T04:56:09.953Z, 42.96
2023-02-14T04:57:09.946Z, 42.91
2023-02-14T04:58:09.949Z, 42.86
2023-02-14T04:59:09.963Z, 42.81
2023-02-14T05:00:09.970Z, 44.29
2023-02-14T05:01:10.066Z, 50.92
2023-02-14T05:02:10.076Z, 56.86
2023-02-14T05:03:09.985Z, 56.05
2023-02-14T05:04:09.994Z, 54.81
2023-02-14T05:05:10.013Z, 53.96
2023-02-14T05:06:10.044Z, 52.99
2023-02-14T05:07:10.046Z, 52.16
2023-02-14T05:08:10.036Z, 51.48
2023-02-14T05:09:10.120Z, 50.79
2023-02-14T05:10:10.112Z, 50.23
2023-02-14T05:11:10.131Z, 49.89
2023-02-14T05:12:10.241Z, 49.59
2023-02-14T05:13:10.140Z, 49.17
2023-02-14T05:14:10.175Z, 48.88
2023-02-14T05:15:10.125Z, 48.64
2023-02-14T05:16:10.214Z, 48.42
2023-02-14T05:17:10.249Z, 48.20
2023-02-14T05:18:10.218Z, 48.00
2023-02-14T05:19:10.160Z, 47.85
2023-02-14T05:20:10.183Z, 47.62
2023-02-14T05:21:10.172Z, 47.41
2023-02-14T05:22:10.216Z, 47.21
2023-02-14T05:23:10.178Z, 47.00
2023-02-14T05:24:10.204Z, 46.77
2023-02-14T05:25:10.258Z, 46.55
2023-02-14T05:26:10.277Z, 46.33
2023-02-14T05:27:10.280Z, 46.13
2023-02-14T05:28:10.260Z, 45.95
2023-02-14T05:29:10.248Z, 45.79
2023-02-14T05:30:10.314Z, 45.61
2023-02-14T05:31:10.446Z, 45.43
2023-02-14T05:32:10.324Z, 45.27
2023-02-14T05:33:10.349Z, 45.17
2023-02-14T05:34:10.312Z, 45.04
2023-02-14T05:35:10.303Z, 44.95
2023-02-14T05:36:10.405Z, 44.84
2023-02-14T05:37:10.343Z, 44.66
2023-02-14T05:38:10.339Z, 44.59
2023-02-14T05:39:10.338Z, 44.50
2023-02-14T05:40:10.380Z, 44.40
2023-02-14T05:41:10.392Z, 44.37
2023-02-14T05:42:10.406Z, 44.25
2023-02-14T05:43:10.401Z, 44.21
2023-02-14T05:44:10.382Z, 44.10
2023-02-14T05:45:10.394Z, 44.00
2023-02-14T05:46:10.543Z, 44.01
2023-02-14T05:47:12.941Z, 43.91
2023-02-14T05:48:10.481Z, 43.83
2023-02-14T05:49:10.532Z, 43.70
2023-02-14T05:50:10.536Z, 43.70
2023-02-14T05:51:10.684Z, 43.59
2023-02-14T05:52:10.549Z, 43.56
2023-02-14T05:53:10.582Z, 43.50
2023-02-14T05:54:11.144Z, 43.35
2023-02-14T05:55:10.501Z, 43.35
2023-02-14T05:56:10.531Z, 43.31
2023-02-14T05:57:10.557Z, 43.30
2023-02-14T05:58:10.556Z, 43.20
2023-02-14T05:59:10.608Z, 43.15
2023-02-14T06:00:10.560Z, 43.10
2023-02-14T06:01:10.580Z, 43.04
2023-02-14T06:02:10.619Z, 43.02
2023-02-14T06:03:10.548Z, 44.74
2023-02-14T06:04:10.625Z, 48.71
2023-02-14T06:05:10.626Z, 52.16
2023-02-14T06:06:10.646Z, 54.34
2023-02-14T06:07:10.613Z, 55.70
2023-02-14T06:08:10.611Z, 56.27
2023-02-14T06:09:10.647Z, 56.49
2023-02-14T06:10:10.634Z, 56.68
2023-02-14T06:11:10.645Z, 56.79
2023-02-14T06:12:10.616Z, 56.72
2023-02-14T06:13:10.685Z, 57.54
2023-02-14T06:14:10.651Z, 58.78
2023-02-14T06:15:10.663Z, 58.66
2023-02-14T06:16:10.715Z, 58.15
2023-02-14T06:17:10.692Z, 57.83
2023-02-14T06:18:10.715Z, 57.45
2023-02-14T06:19:10.744Z, 57.02
2023-02-14T06:20:10.733Z, 56.47
2023-02-14T06:21:10.743Z, 55.98
2023-02-14T06:22:10.722Z, 55.52
2023-02-14T06:23:10.731Z, 55.05
2023-02-14T06:24:10.778Z, 54.65
2023-02-14T06:25:10.814Z, 54.34
2023-02-14T06:26:10.830Z, 54.04
2023-02-14T06:27:10.859Z, 53.70
2023-02-14T06:28:10.880Z, 53.43
2023-02-14T06:29:10.867Z, 53.16
2023-02-14T06:30:10.913Z, 52.90
2023-02-14T06:31:10.975Z, 52.65
2023-02-14T06:32:11.041Z, 52.40
2023-02-14T06:33:10.876Z, 52.21
2023-02-14T06:34:10.856Z, 51.96
2023-02-14T06:35:10.906Z, 51.84
2023-02-14T06:36:10.889Z, 51.69
2023-02-14T06:37:10.873Z, 51.48
2023-02-14T06:38:10.873Z, 51.29
2023-02-14T06:39:10.908Z, 51.13
2023-02-14T06:40:10.896Z, 50.95
2023-02-14T06:41:10.921Z, 50.83
2023-02-14T06:42:10.893Z, 50.61
2023-02-14T06:43:10.984Z, 50.45
2023-02-14T06:44:10.947Z, 50.33
2023-02-14T06:45:10.959Z, 50.13
2023-02-14T06:46:10.993Z, 50.03
2023-02-14T06:47:10.977Z, 49.92
2023-02-14T06:48:11.003Z, 49.82
2023-02-14T06:49:11.035Z, 49.68
2023-02-14T06:50:11.058Z, 49.57
2023-02-14T06:51:11.053Z, 49.48
2023-02-14T06:52:11.032Z, 49.38
2023-02-14T06:53:11.030Z, 49.27
2023-02-14T06:54:11.028Z, 49.18
2023-02-14T06:55:11.033Z, 49.05
2023-02-14T06:56:11.047Z, 48.95
2023-02-14T06:57:11.038Z, 48.89
2023-02-14T06:58:11.071Z, 48.70
2023-02-14T06:59:11.067Z, 48.56
2023-02-14T07:00:11.206Z, 48.45
2023-02-14T07:01:11.207Z, 48.38
2023-02-14T07:02:11.283Z, 48.33
2023-02-14T07:03:11.192Z, 48.27
2023-02-14T07:04:11.142Z, 48.20
2023-02-14T07:05:11.129Z, 48.08
2023-02-14T07:06:11.206Z, 47.98
2023-02-14T07:07:11.171Z, 47.96
2023-02-14T07:08:11.159Z, 47.90
2023-02-14T07:09:11.156Z, 47.78
2023-02-14T07:10:11.157Z, 47.69
2023-02-14T07:11:11.174Z, 47.60
2023-02-14T07:12:11.261Z, 47.48
2023-02-14T07:13:11.211Z, 47.42
2023-02-14T07:14:11.216Z, 47.35
2023-02-14T07:15:11.219Z, 47.24
2023-02-14T07:16:11.281Z, 47.16
2023-02-14T07:17:11.254Z, 47.06
2023-02-14T07:18:11.245Z, 47.07
2023-02-14T07:19:11.279Z, 46.99
2023-02-14T07:20:11.361Z, 46.89
2023-02-14T07:21:11.341Z, 46.85
2023-02-14T07:22:11.354Z, 46.81
2023-02-14T07:23:11.332Z, 46.70
2023-02-14T07:24:11.386Z, 46.64
2023-02-14T07:25:11.378Z, 46.58
2023-02-14T07:26:11.416Z, 46.54
2023-02-14T07:27:11.398Z, 46.50
2023-02-14T07:28:11.370Z, 46.48
2023-02-14T07:29:11.370Z, 46.40
2023-02-14T07:30:11.462Z, 46.40
2023-02-14T07:31:11.477Z, 46.33
2023-02-14T07:32:11.484Z, 46.24
2023-02-14T07:33:11.405Z, 46.22
2023-02-14T07:34:11.439Z, 46.14
2023-02-14T07:35:11.556Z, 46.18
2023-02-14T07:36:11.547Z, 46.02
2023-02-14T07:37:11.559Z, 46.01
2023-02-14T07:38:11.577Z, 45.88
2023-02-14T07:39:11.575Z, 45.85
2023-02-14T07:40:14.945Z, 45.84
2023-02-14T07:41:11.638Z, 45.76
2023-02-14T07:42:11.723Z, 45.68
2023-02-14T07:43:11.556Z, 45.58
2023-02-14T07:44:11.583Z, 45.58
2023-02-14T07:45:21.308Z, 45.51
2023-02-14T07:46:11.589Z, 45.54
2023-02-14T07:47:11.561Z, 45.54
2023-02-14T07:48:11.632Z, 45.43
2023-02-14T07:49:11.603Z, 45.45
2023-02-14T07:50:11.605Z, 45.38
2023-02-14T07:51:11.629Z, 45.28
2023-02-14T07:52:11.626Z, 45.21
2023-02-14T07:53:11.638Z, 45.14
2023-02-14T07:54:11.602Z, 45.13
2023-02-14T07:55:11.608Z, 45.14
2023-02-14T07:56:11.622Z, 45.06
2023-02-14T07:57:11.665Z, 45.01
2023-02-14T07:58:11.632Z, 44.99
2023-02-14T07:59:11.632Z, 45.03
2023-02-14T08:00:11.675Z, 44.95
2023-02-14T08:01:11.720Z, 44.93
2023-02-14T08:02:11.740Z, 44.91
2023-02-14T08:03:11.731Z, 44.83
2023-02-14T08:04:11.761Z, 44.72
2023-02-14T08:05:11.854Z, 44.72
2023-02-14T08:06:11.757Z, 44.59
2023-02-14T08:07:11.744Z, 44.58
2023-02-14T08:08:11.766Z, 44.52
2023-02-14T08:09:11.763Z, 44.51
2023-02-14T08:10:13.009Z, 44.45
2023-02-14T08:11:11.833Z, 44.49
2023-02-14T08:12:11.894Z, 44.42
2023-02-14T08:13:11.863Z, 44.39
2023-02-14T08:14:11.889Z, 44.33
2023-02-14T08:15:11.883Z, 44.28
2023-02-14T08:16:11.945Z, 44.26
2023-02-14T08:17:11.879Z, 44.27
2023-02-14T08:18:11.871Z, 44.16
2023-02-14T08:19:11.866Z, 44.17
2023-02-14T08:20:11.866Z, 44.13
2023-02-14T08:21:11.897Z, 44.09
2023-02-14T08:22:11.873Z, 44.09
2023-02-14T08:23:11.900Z, 43.99
2023-02-14T08:24:11.891Z, 43.97
2023-02-14T08:25:11.948Z, 43.95
2023-02-14T08:26:11.993Z, 43.99
2023-02-14T08:27:12.005Z, 43.97
2023-02-14T08:28:12.020Z, 43.94
2023-02-14T08:29:12.004Z, 43.90
2023-02-14T08:30:12.065Z, 43.86
2023-02-14T08:31:12.033Z, 43.87
2023-02-14T08:32:12.139Z, 43.79
2023-02-14T08:33:12.040Z, 43.77
2023-02-14T08:34:12.044Z, 43.73
2023-02-14T08:35:12.077Z, 43.68
2023-02-14T08:36:12.095Z, 43.66
2023-02-14T08:37:12.053Z, 43.67
2023-02-14T08:38:12.059Z, 43.65
2023-02-14T08:39:12.134Z, 43.59
2023-02-14T08:40:12.118Z, 43.52
2023-02-14T08:41:12.137Z, 43.51
2023-02-14T08:42:12.123Z, 43.44
2023-02-14T08:43:12.114Z, 43.46
2023-02-14T08:44:12.176Z, 43.34
2023-02-14T08:45:12.155Z, 43.33
2023-02-14T08:46:12.193Z, 43.25
2023-02-14T08:47:12.157Z, 43.30
2023-02-14T08:48:12.215Z, 43.31
2023-02-14T08:49:12.317Z, 43.34
2023-02-14T08:50:12.233Z, 43.32
2023-02-14T08:51:12.304Z, 43.21
2023-02-14T08:52:12.294Z, 43.14
2023-02-14T08:53:12.280Z, 43.21
2023-02-14T08:54:12.248Z, 43.10
2023-02-14T08:55:12.298Z, 43.15
2023-02-14T08:56:12.310Z, 43.11
2023-02-14T08:57:12.340Z, 43.09
2023-02-14T08:58:12.278Z, 42.99
2023-02-14T08:59:12.287Z, 42.97
2023-02-14T09:00:12.447Z, 43.04
2023-02-14T09:01:12.445Z, 42.92
2023-02-14T09:02:12.370Z, 42.88
2023-02-14T09:03:12.430Z, 42.89
2023-02-14T09:04:12.419Z, 42.98
2023-02-14T09:05:12.420Z, 42.95
2023-02-14T09:06:12.377Z, 43.00
2023-02-14T09:07:12.376Z, 42.93
2023-02-14T09:08:12.463Z, 42.98
2023-02-14T09:09:12.465Z, 42.92
2023-02-14T09:10:12.421Z, 42.94
2023-02-14T09:11:12.401Z, 42.82
2023-02-14T09:12:12.402Z, 42.81
2023-02-14T09:13:12.470Z, 42.79
2023-02-14T09:14:12.462Z, 42.75
2023-02-14T09:15:12.503Z, 42.78
2023-02-14T09:16:12.593Z, 42.78
2023-02-14T09:17:12.497Z, 42.71
2023-02-14T09:18:12.494Z, 42.66
2023-02-14T09:19:12.509Z, 42.64
2023-02-14T09:20:12.508Z, 42.54
2023-02-14T09:21:12.635Z, 42.43
2023-02-14T09:22:12.544Z, 42.40
2023-02-14T09:23:12.542Z, 42.41
2023-02-14T09:24:12.561Z, 42.41
2023-02-14T09:25:12.537Z, 42.38
2023-02-14T09:26:12.543Z, 42.37
2023-02-14T09:27:12.574Z, 42.32
2023-02-14T09:28:12.577Z, 42.22
2023-02-14T09:29:12.601Z, 42.28
2023-02-14T09:30:12.748Z, 42.16
2023-02-14T09:31:12.775Z, 42.14
2023-02-14T09:32:12.787Z, 42.17
2023-02-14T09:33:12.676Z, 42.17
2023-02-14T09:34:12.653Z, 42.10
2023-02-14T09:35:12.643Z, 42.03
2023-02-14T09:36:12.650Z, 42.09
2023-02-14T09:37:12.655Z, 42.03
2023-02-14T09:38:12.652Z, 41.96
2023-02-14T09:39:12.684Z, 41.93
2023-02-14T09:40:12.681Z, 41.85
2023-02-14T09:41:12.690Z, 41.84
2023-02-14T09:42:12.733Z, 41.84
2023-02-14T09:43:12.711Z, 41.85
2023-02-14T09:44:12.721Z, 41.82
2023-02-14T09:45:12.784Z, 41.77
2023-02-14T09:46:12.820Z, 41.80
2023-02-14T09:47:12.819Z, 41.79
2023-02-14T09:48:12.829Z, 41.75
2023-02-14T09:49:13.009Z, 41.76
2023-02-14T09:50:12.852Z, 41.70
2023-02-14T09:51:12.833Z, 41.69
2023-02-14T09:52:13.864Z, 41.70
2023-02-14T09:53:12.811Z, 41.63
2023-02-14T09:54:12.895Z, 41.57
2023-02-14T09:55:12.866Z, 41.74
2023-02-14T09:56:12.845Z, 44.97
2023-02-14T09:57:12.893Z, 48.97
2023-02-14T09:58:12.875Z, 53.42
2023-02-14T09:59:12.880Z, 58.32
2023-02-14T10:00:12.896Z, 68.72
2023-02-14T10:01:12.951Z, 61.42
2023-02-14T10:02:12.887Z, 53.43
2023-02-14T10:03:12.923Z, 53.80
2023-02-14T10:04:12.974Z, 55.21
2023-02-14T10:05:12.994Z, 57.75
2023-02-14T10:06:13.020Z, 61.83
2023-02-14T10:07:12.981Z, 66.74
2023-02-14T10:08:13.014Z, 56.00
2023-02-14T10:09:13.038Z, 53.95
2023-02-14T10:10:12.997Z, 55.25
2023-02-14T10:11:13.060Z, 56.46
2023-02-14T10:12:13.016Z, 57.37
2023-02-14T10:13:13.092Z, 57.95
2023-02-14T10:14:13.091Z, 58.32
2023-02-14T10:15:13.062Z, 58.63
2023-02-14T10:16:13.144Z, 58.73
2023-02-14T10:17:13.078Z, 58.86
2023-02-14T10:18:13.132Z, 58.89
2023-02-14T10:19:13.116Z, 58.84
2023-02-14T10:20:13.146Z, 58.82
2023-02-14T10:21:13.177Z, 58.72
2023-02-14T10:22:13.180Z, 58.64
2023-02-14T10:23:13.186Z, 58.59
2023-02-14T10:24:13.189Z, 58.45
2023-02-14T10:25:13.188Z, 58.36
2023-02-14T10:26:13.166Z, 58.32
2023-02-14T10:27:13.179Z, 58.13
2023-02-14T10:28:14.209Z, 58.09
2023-02-14T10:29:13.202Z, 57.90
2023-02-14T10:30:13.246Z, 57.78
2023-02-14T10:31:13.216Z, 57.58
2023-02-14T10:32:13.368Z, 57.48
2023-02-14T10:33:13.204Z, 57.36
2023-02-14T10:34:13.289Z, 57.22
2023-02-14T10:35:13.272Z, 57.10
2023-02-14T10:36:13.270Z, 56.85
2023-02-14T10:37:13.278Z, 56.78
2023-02-14T10:38:13.261Z, 56.67
2023-02-14T10:39:13.293Z, 56.53
2023-02-14T10:40:13.282Z, 56.42
2023-02-14T10:41:13.318Z, 56.31
2023-02-14T10:42:13.415Z, 56.20
2023-02-14T10:43:13.374Z, 56.01
2023-02-14T10:44:13.416Z, 55.87
2023-02-14T10:45:13.377Z, 55.80
2023-02-14T10:46:13.426Z, 55.79
2023-02-14T10:47:13.361Z, 55.62
2023-02-14T10:48:13.494Z, 55.49
2023-02-14T10:49:13.425Z, 55.42
2023-02-14T10:50:13.453Z, 55.30
2023-02-14T10:51:13.425Z, 55.14
2023-02-14T10:52:13.462Z, 55.05
2023-02-14T10:53:13.476Z, 55.06
2023-02-14T10:54:13.516Z, 54.96
2023-02-14T10:55:20.181Z, 54.85
2023-02-14T10:56:13.538Z, 54.80
2023-02-14T10:57:13.533Z, 54.72
2023-02-14T10:58:13.546Z, 54.61
2023-02-14T10:59:13.560Z, 54.52
2023-02-14T11:00:13.560Z, 54.46
2023-02-14T11:01:13.623Z, 55.05
2023-02-14T11:02:13.560Z, 56.83
2023-02-14T11:03:13.584Z, 57.00
2023-02-14T11:04:13.548Z, 56.23
2023-02-14T11:05:13.554Z, 54.61
2023-02-14T11:06:13.559Z, 52.57
2023-02-14T11:07:13.599Z, 50.35
2023-02-14T11:08:13.616Z, 48.19
2023-02-14T11:09:13.613Z, 46.73
2023-02-14T11:10:13.580Z, 45.92
2023-02-14T11:11:13.579Z, 45.38
2023-02-14T11:12:13.589Z, 44.89
2023-02-14T11:13:13.615Z, 44.44
2023-02-14T11:14:13.620Z, 44.00
2023-02-14T11:15:13.665Z, 43.65
2023-02-14T11:16:13.693Z, 43.30
2023-02-14T11:17:13.686Z, 42.94
2023-02-14T11:18:13.695Z, 42.53
2023-02-14T11:19:13.686Z, 42.11
2023-02-14T11:20:13.712Z, 41.71
2023-02-14T11:21:13.747Z, 42.23
2023-02-14T11:22:13.745Z, 46.53
2023-02-14T11:23:13.784Z, 51.60
2023-02-14T11:24:13.800Z, 53.31
2023-02-14T11:25:13.752Z, 52.04
2023-02-14T11:26:13.762Z, 50.47
2023-02-14T11:27:13.754Z, 48.99
2023-02-14T11:28:13.761Z, 47.83
2023-02-14T11:29:13.777Z, 46.75
2023-02-14T11:30:13.832Z, 45.82
2023-02-14T11:31:13.868Z, 45.66
2023-02-14T11:32:13.850Z, 45.64
2023-02-14T11:33:13.813Z, 45.53
2023-02-14T11:34:13.842Z, 45.36
2023-02-14T11:35:13.873Z, 45.11
2023-02-14T11:36:13.872Z, 44.83
2023-02-14T11:37:13.863Z, 44.62
2023-02-14T11:38:13.890Z, 44.44
2023-02-14T11:39:13.909Z, 44.20
2023-02-14T11:40:13.900Z, 44.04
2023-02-14T11:41:13.900Z, 43.84
2023-02-14T11:42:13.882Z, 43.64
2023-02-14T11:43:15.003Z, 43.43
2023-02-14T11:44:13.954Z, 43.22
2023-02-14T11:45:13.926Z, 43.06
2023-02-14T11:46:14.033Z, 42.89
2023-02-14T11:47:13.939Z, 42.76
2023-02-14T11:48:15.054Z, 42.64
2023-02-14T11:49:13.957Z, 42.51
2023-02-14T11:50:13.941Z, 42.40
2023-02-14T11:51:14.090Z, 42.26
2023-02-14T11:52:13.964Z, 42.12
2023-02-14T11:53:13.968Z, 41.95
2023-02-14T11:54:14.042Z, 41.85
2023-02-14T11:55:14.050Z, 41.71
2023-02-14T11:56:14.050Z, 41.60
2023-02-14T11:57:14.061Z, 41.47
2023-02-14T11:58:14.027Z, 41.36
2023-02-14T11:59:14.174Z, 41.28
2023-02-14T12:00:14.073Z, 41.16
2023-02-14T12:01:14.082Z, 41.10
2023-02-14T12:02:14.151Z, 40.96
2023-02-14T12:03:14.151Z, 40.84
2023-02-14T12:04:14.108Z, 40.78
2023-02-14T12:05:14.124Z, 40.70
2023-02-14T12:06:14.158Z, 40.60
2023-02-14T12:07:14.134Z, 40.45
2023-02-14T12:08:14.209Z, 40.35
2023-02-14T12:09:14.261Z, 40.26
2023-02-14T12:10:14.180Z, 40.18
2023-02-14T12:11:14.209Z, 40.05
2023-02-14T12:12:14.213Z, 40.03
2023-02-14T12:13:14.188Z, 39.95
2023-02-14T12:14:14.249Z, 39.85
2023-02-14T12:15:14.219Z, 39.76
2023-02-14T12:16:14.226Z, 39.72
2023-02-14T12:17:14.218Z, 39.67
2023-02-14T12:18:14.268Z, 39.60
2023-02-14T12:19:14.267Z, 39.54
2023-02-14T12:20:14.280Z, 39.48
2023-02-14T12:21:14.294Z, 39.38
2023-02-14T12:22:14.276Z, 39.29
2023-02-14T12:23:14.308Z, 39.22
2023-02-14T12:24:14.310Z, 39.21
2023-02-14T12:25:14.290Z, 39.12
2023-02-14T12:26:14.288Z, 39.05
2023-02-14T12:27:14.303Z, 38.94
2023-02-14T12:28:14.323Z, 38.89